KSCF/SCF METAR and TAF weather

Enter ICAO airport designator
Station Type Date Time Source
KSCF METAR 2021/08/26 10:25 UTC NOAA

KSCF 261025Z AUTO 10007KT M1/4SM HZ VV000 29/23 A2997 RMK A01


Station Type Date Time Source
KSCF Decoded METAR 2021/08/26 10:25 UTC NOAA

South Marsh 268, LA, United States (KSCF) 29-06-57N 091-52-16W
Aug 26, 2021 - 06:25 AM EDT / 2021.08.26 1025 UTC
Wind: from the E (100 degrees) at 8 MPH (7 KT):0
Visibility: less than 1/4 mile(s):1
Sky conditions: obscured
Weather: haze
Temperature: 84 F (29 C)
Dew Point: 73 F (23 C)
Relative Humidity: 70%
Pressure (altimeter): 29.97 in. Hg (1014 hPa)
ob: KSCF 261025Z AUTO 10007KT M1/4SM HZ VV000 29/23 A2997 RMK A01
cycle: 10

Station Type Date Time Source
KSCF TAF UTC NOAA

Error!

Example: see airport list